Latest Weather Observations for Strathalbyn

IDS60901

Issued at 8:51 am CDT Monday 27 January 2020 (issued every 10 minutes, with the page automatically refreshed every 10 minutes)

About weather observations | Map of Adelaide area stations | Latest observations for Adelaide area | Other Formats
Station Details ID: 024580 Name: STRATHALBYN RACECOURSE Lat: -35.28 Lon: 138.89 Height: 58.0 m
Data from the previous 72 hours. | See also: Recent months at Strathalbyn
Date/Time
CDT
Temp
°C
App
Temp
°C
Dew
Point
°C
Rel
Hum
%
Delta-T
°C
Wind Press
QNH
hPa
Press
MSL
hPa
Rain since
9am
mm
Dir  Spd
km/h
Gust
km/h
Spd
kts
Gust
kts
27/08:30am 18.3 17.2 11.8 66 3.6 NE 9 13 5 7 1016.3 1016.1 0.0
27/08:00am 17.5 16.3 11.5 68 3.3 NNE 9 13 5 7 1016.0 1015.8 0.0
27/07:30am 16.4 17.1 12.2 76 2.3 CALM 0 0 0 0 1016.7 1016.5 0.0
27/07:00am 15.1 15.6 11.7 80 1.8 CALM 0 0 0 0 1016.1 1015.9 0.0
27/06:30am 15.2 15.8 11.8 80 1.8 CALM 0 7 0 4 1016.0 1015.8 0.0
27/06:00am 15.4 15.3 12.0 80 1.8 NE 4 7 2 4 1015.9 1015.7 0.0
27/05:30am 15.3 14.7 11.7 79 1.9 ESE 6 6 3 3 1015.8 1015.6 0.0
27/05:00am 15.7 14.8 11.5 76 2.3 E 7 9 4 5 1015.2 1015.0 0.0
27/04:30am 16.7 15.2 12.0 74 2.6 E 11 13 6 7 1015.4 1015.2 0.0
27/04:00am 17.4 16.7 12.1 71 2.9 E 7 11 4 6 1015.7 1015.5 0.0
27/03:30am 17.6 17.2 12.5 72 2.8 SE 6 9 3 5 1016.2 1016.0 0.0
27/03:00am 17.6 16.7 12.5 72 2.8 ESE 9 11 5 6 1016.1 1015.9 0.0
27/02:30am 17.7 17.2 12.8 73 2.7 ESE 7 11 4 6 1016.2 1016.0 0.0
27/02:00am 17.8 17.1 13.3 75 2.5 ESE 9 11 5 6 1016.4 1016.2 0.0
27/01:30am 17.8 17.1 13.1 74 2.6 E 9 13 5 7 1016.3 1016.1 0.0
27/01:00am 17.8 17.5 13.3 75 2.5 SE 7 11 4 6 1016.4 1016.2 0.0
27/12:30am 17.6 16.9 13.3 76 2.4 ESE 9 15 5 8 1016.7 1016.5 0.0
27/12:00am 17.8 16.8 13.5 76 2.4 SSE 11 13 6 7 1016.8 1016.6 0.0
 
Date/Time
CDT
Temp
°C
App
Temp
°C
Dew
Point
°C
Rel
Hum
%
Delta-T
°C
Wind Press
QNH
hPa
Press
MSL
hPa
Rain since
9am
mm
Dir  Spd
km/h
Gust
km/h
Spd
kts
Gust
kts
26/11:30pm 18.3 17.4 13.8 75 2.6 SSE 11 17 6 9 1016.8 1016.6 0.0
26/11:00pm 18.5 17.9 13.6 73 2.8 SSE 9 13 5 7 1016.7 1016.5 0.0
26/10:30pm 18.5 17.1 13.4 72 2.9 S 13 20 7 11 1016.8 1016.6 0.0
26/10:00pm 18.4 17.5 13.7 74 2.7 S 11 15 6 8 1016.9 1016.7 0.0
26/09:30pm 18.1 17.5 13.6 75 2.6 SSW 9 11 5 6 1016.7 1016.5 0.0
26/09:00pm 17.8 16.7 13.1 74 2.6 SSW 11 13 6 7 1016.7 1016.5 0.0
26/08:30pm 18.7 16.4 13.1 70 3.2 S 17 20 9 11 1016.5 1016.3 0.0
26/08:00pm 19.6 17.0 13.1 66 3.7 SSW 19 24 10 13 1016.1 1015.9 0.0
26/07:30pm 20.3 17.0 12.8 62 4.2 S 22 30 12 16 1015.6 1015.4 0.0
26/07:00pm 21.0 17.1 13.2 61 4.5 SSW 26 35 14 19 1015.2 1015.0 0.0
26/06:30pm 21.3 17.8 13.5 61 4.5 S 24 28 13 15 1015.0 1014.8 0.0
26/06:00pm 22.0 18.7 13.9 60 4.7 SSW 24 32 13 17 1015.0 1014.8 0.0
26/05:30pm 22.2 18.7 13.5 57 5.0 SSW 24 32 13 17 1014.9 1014.7 0.0
26/05:00pm 23.3 20.1 14.3 57 5.3 S 24 39 13 21 1015.0 1014.8 0.0
26/04:30pm 23.0 19.1 14.3 58 5.1 S 28 39 15 21 1014.9 1014.7 0.0
26/04:00pm 23.2 19.2 13.1 53 5.8 S 26 37 14 20 1014.9 1014.7 0.0
26/03:30pm 24.6 20.7 13.2 49 6.6 SSW 26 33 14 18 1014.9 1014.7 0.0
26/03:00pm 23.8 20.3 13.4 52 6.1 S 24 33 13 18 1015.2 1015.0 0.0
26/02:30pm 23.6 20.3 14.0 55 5.6 S 24 37 13 20 1015.3 1015.1 0.0
26/02:00pm 23.6 20.2 13.8 54 5.7 SSW 24 35 13 19 1015.4 1015.2 0.0
26/01:30pm 23.4 19.7 13.8 54 5.6 S 26 37 14 20 1015.7 1015.5 0.0
26/01:00pm 24.1 21.9 14.5 55 5.7 SSW 19 26 10 14 1015.7 1015.5 0.0
26/12:30pm 24.9 22.7 14.4 52 6.2 SW 19 28 10 15 1016.1 1015.9 0.0
26/12:00pm 23.6 21.6 13.8 54 5.7 WSW 17 24 9 13 1016.3 1016.1 0.0
26/11:30am 23.2 22.1 14.2 57 5.3 WSW 13 19 7 10 1016.4 1016.2 0.0
26/11:00am 21.8 21.4 14.2 62 4.4 WSW 9 20 5 11 1016.6 1016.4 0.0
26/10:30am 20.6 20.9 14.9 70 3.4 SW 7 9 4 5 1016.4 1016.2 0.0
26/10:00am 19.7 19.2 14.9 74 2.8 S 11 15 6 8 1016.9 1016.7 0.0
26/09:30am 18.6 17.4 15.1 80 2.0 SSW 15 19 8 10 1017.0 1016.8 0.0
26/09:00am 18.5 17.7 15.2 81 1.9 S 13 15 7 8 1016.6 1016.4 0.0
26/08:30am 18.4 18.5 15.6 84 1.7 S 9 11 5 6 1016.5 1016.3 0.0
26/08:00am 17.9 19.0 15.5 86 1.4 SE 4 6 2 3 1015.9 1015.7 0.0
26/07:30am 17.7 19.6 16.7 94 0.6 SW 2 6 1 3 1015.9 1015.7 0.0
26/07:00am 16.9 18.6 15.2 90 1.0 CALM 0 0 0 0 1015.7 1015.5 0.0
26/06:30am 17.3 17.9 15.8 91 0.9 SSW 7 11 4 6 1015.7 1015.5 0.0
26/06:00am 17.7 17.6 15.9 89 1.1 SW 11 15 6 8 1015.5 1015.3 0.0
26/05:30am 17.9 16.9 15.5 86 1.4 SSW 15 20 8 11 1015.1 1014.9 0.0
26/05:00am 18.0 17.5 16.0 88 1.2 SSW 13 15 7 8 1014.6 1014.4 0.0
26/04:30am 18.2 18.3 15.6 85 1.5 SSW 9 13 5 7 1014.3 1014.1 0.0
26/04:00am 18.4 19.1 15.5 83 1.7 SW 6 13 3 7 1014.1 1013.9 0.0
26/03:30am 18.6 19.6 15.3 81 1.9 SW 4 7 2 4 1013.9 1013.7 0.0
26/03:00am 18.5 20.1 15.0 80 2.0 CALM 0 0 0 0 1014.0 1013.8 0.0
26/02:30am 18.5 19.0 15.0 80 2.0 S 6 9 3 5 1014.4 1014.2 0.0
26/02:00am 18.5 20.2 15.2 81 1.9 CALM 0 0 0 0 1014.6 1014.4 0.0
26/01:30am 18.5 19.5 15.4 82 1.8 S 4 6 2 3 1014.9 1014.7 0.0
26/01:00am 18.4 20.1 15.3 82 1.8 CALM 0 6 0 3 1015.2 1015.0 0.0
26/12:30am 18.4 19.4 15.3 82 1.8 SW 4 6 2 3 1015.2 1015.0 0.0
26/12:00am 18.3 18.7 15.2 82 1.8 SW 7 11 4 6 1015.3 1015.1 0.0
 
Date/Time
CDT
Temp
°C
App
Temp
°C
Dew
Point
°C
Rel
Hum
%
Delta-T
°C
Wind Press
QNH
hPa
Press
MSL
hPa
Rain since
9am
mm
Dir  Spd
km/h
Gust
km/h
Spd
kts
Gust
kts
25/11:30pm 18.2 18.5 15.1 82 1.8 SW 7 11 4 6 1015.4 1015.2 0.0
25/11:00pm 18.0 17.6 15.1 83 1.7 SW 11 13 6 7 1015.4 1015.2 0.0
25/10:30pm 17.6 17.3 14.5 82 1.8 SW 9 11 5 6 1015.4 1015.2 0.0
25/10:00pm 17.8 17.5 14.3 80 2.0 SW 9 11 5 6 1015.3 1015.1 0.0
25/09:30pm 18.4 17.3 14.3 77 2.4 SW 13 17 7 9 1015.1 1014.9 0.0
25/09:00pm 18.9 17.5 14.4 75 2.6 SSW 15 20 8 11 1014.8 1014.6 0.0
25/08:30pm 19.8 18.0 14.4 71 3.1 SSW 17 22 9 12 1014.6 1014.4 0.0
25/08:00pm 21.0 18.5 14.2 65 4.0 S 20 24 11 13 1014.4 1014.2 0.0
25/07:30pm 22.2 20.0 14.3 61 4.6 S 19 26 10 14 1013.9 1013.7 0.0
25/07:00pm 22.7 20.5 14.3 59 4.9 SSW 19 24 10 13 1013.6 1013.4 0.0
25/06:30pm 23.0 20.6 14.3 58 5.1 S 20 26 11 14 1013.4 1013.2 0.0
25/06:00pm 24.4 22.2 14.8 55 5.7 S 20 28 11 15 1013.3 1013.1 0.0
25/05:30pm 24.5 22.1 14.3 53 6.0 S 20 28 11 15 1013.4 1013.2 0.0
25/05:00pm 24.9 22.5 14.4 52 6.2 S 20 26 11 14 1013.5 1013.3 0.0
25/04:30pm 25.7 23.3 13.9 48 7.0 SW 19 30 10 16 1013.5 1013.3 0.0
25/04:00pm 25.8 22.7 11.6 41 8.1 SW 19 26 10 14 1013.8 1013.6 0.0
25/03:30pm 25.9 23.2 11.6 40 8.2 WSW 17 26 9 14 1014.0 1013.8 0.0
25/03:00pm 25.2 23.2 11.4 42 7.8 WSW 13 24 7 13 1014.3 1014.1 0.0
25/02:30pm 25.8 23.5 11.6 41 8.1 WSW 15 28 8 15 1014.3 1014.1 0.0
25/02:00pm 24.8 22.2 12.1 45 7.3 W 17 26 9 14 1014.6 1014.4 0.0
25/01:30pm 25.0 22.4 11.9 44 7.5 W 17 28 9 15 1014.9 1014.7 0.0
25/01:00pm 24.4 21.3 11.7 45 7.2 W 19 30 10 16 1015.3 1015.1 0.0
25/12:30pm 23.9 21.6 11.9 47 6.8 W 15 26 8 14 1015.6 1015.4 0.0
25/12:00pm 23.2 19.8 11.3 47 6.7 W 20 30 11 16 1015.7 1015.5 0.0
25/11:30am 23.6 21.7 12.9 51 6.2 W 15 24 8 13 1015.7 1015.5 0.0
25/11:00am 21.9 18.6 11.6 52 5.8 W 20 32 11 17 1015.8 1015.6 0.0
25/10:30am 21.4 18.8 12.0 55 5.3 W 17 24 9 13 1015.7 1015.5 0.0
25/10:00am 20.8 18.7 13.5 63 4.2 WNW 17 22 9 12 1015.9 1015.7 0.0
25/09:30am 20.0 18.3 13.7 67 3.6 WNW 15 24 8 13 1016.0 1015.8 0.0
25/09:00am 19.1 18.2 13.7 71 3.1 NW 11 17 6 9 1016.1 1015.9 0.0
25/08:30am 18.7 18.2 13.8 73 2.8 NW 9 15 5 8 1016.2 1016.0 0.0
25/08:00am 18.2 18.2 14.1 77 2.4 NNW 7 9 4 5 1016.0 1015.8 0.0
25/07:30am 17.6 17.8 14.1 80 2.0 NNW 6 9 3 5 1015.6 1015.4 0.0
25/07:00am 17.2 17.1 13.9 81 1.9 N 7 9 4 5 1015.4 1015.2 0.0
25/06:30am 17.3 16.4 13.8 80 2.0 NNW 11 15 6 8 1015.3 1015.1 0.0
25/06:00am 17.1 16.5 13.6 80 2.0 NNW 9 11 5 6 1015.1 1014.9 0.0
25/05:30am 17.0 15.6 13.5 80 2.0 NW 13 17 7 9 1015.0 1014.8 0.0
25/05:00am 17.1 15.4 13.6 80 2.0 WNW 15 19 8 10 1014.8 1014.6 0.0
25/04:30am 17.0 15.6 13.3 79 2.1 WNW 13 17 7 9 1014.9 1014.7 0.0
25/04:00am 17.4 16.5 13.7 79 2.1 NW 11 15 6 8 1015.0 1014.8 0.0
25/03:30am 17.3 16.8 13.8 80 2.0 NNW 9 11 5 6 1015.0 1014.8 0.0
25/03:00am 17.2 16.6 13.5 79 2.1 N 9 11 5 6 1015.0 1014.8 0.0
25/02:30am 16.9 16.8 13.4 80 2.0 NNW 6 7 3 4 1015.1 1014.9 0.0
25/02:00am 16.3 17.2 13.0 81 1.8 CALM 0 0 0 0 1015.3 1015.1 0.0
25/01:30am 15.8 16.6 12.7 82 1.7 CALM 0 0 0 0 1015.3 1015.1 0.0
25/01:00am 15.0 15.1 11.6 80 1.8 NNW 2 6 1 3 1015.5 1015.3 0.0
25/12:30am 15.6 14.1 12.0 79 2.0 NW 11 13 6 7 1015.6 1015.4 0.0
25/12:00am 16.4 15.1 12.4 77 2.2 NW 11 15 6 8 1015.3 1015.1 0.0
 
Date/Time
CDT
Temp
°C
App
Temp
°C
Dew
Point
°C
Rel
Hum
%
Delta-T
°C
Wind Press
QNH
hPa
Press
MSL
hPa
Rain since
9am
mm
Dir  Spd
km/h
Gust
km/h
Spd
kts
Gust
kts
24/11:30pm 15.9 14.7 11.7 76 2.3 WSW 9 13 5 7 1015.4 1015.2 0.0
24/11:00pm 15.9 14.2 11.3 74 2.5 S 11 15 6 8 1015.3 1015.1 0.0
24/10:30pm 16.9 14.6 11.8 72 2.8 S 15 20 8 11 1015.3 1015.1 0.0
24/10:00pm 16.7 16.1 11.6 72 2.8 S 6 7 3 4 1015.1 1014.9 0.0
24/09:30pm 17.3 16.4 11.3 68 3.3 WNW 7 9 4 5 1015.0 1014.8 0.0
24/09:00pm 18.3 16.7 11.4 64 3.8 WNW 11 15 6 8 1014.9 1014.7 0.0
24/08:30pm 18.7 17.1 11.5 63 4.0 WNW 11 13 6 7 1014.6 1014.4 0.0
24/08:00pm 19.5 16.7 11.3 59 4.5 WNW 17 22 9 12 1014.4 1014.2 0.0
24/07:30pm 20.4 16.9 10.8 54 5.3 WNW 20 26 11 14 1014.1 1013.9 0.0
24/07:00pm 21.2 17.4 11.0 52 5.6 W 22 32 12 17 1013.9 1013.7 0.0
24/06:30pm 21.7 17.0 10.8 50 6.0 WNW 26 37 14 20 1013.6 1013.4 0.0
24/06:00pm 21.9 18.1 11.3 51 5.9 WNW 22 33 12 18 1013.4 1013.2 0.0
24/05:30pm 21.5 18.0 10.9 51 5.8 WNW 20 32 11 17 1013.6 1013.4 0.0
24/05:00pm 21.1 17.2 10.9 52 5.6 W 22 32 12 17 1014.0 1013.8 0.0
24/04:30pm 21.9 16.7 10.1 47 6.4 W 28 37 15 20 1013.8 1013.6 0.0
24/04:00pm 22.9 18.6 10.7 46 6.8 W 24 37 13 20 1013.7 1013.5 0.0
24/03:30pm 23.3 19.2 10.0 43 7.3 WSW 22 39 12 21 1013.8 1013.6 0.0
24/03:00pm 22.3 17.7 9.5 44 6.9 WNW 24 37 13 20 1014.1 1013.9 0.0
24/02:30pm 21.8 16.8 9.7 46 6.5 WSW 26 37 14 20 1014.5 1014.3 0.0
24/02:00pm 22.6 17.2 9.4 43 7.1 W 28 39 15 21 1014.5 1014.3 0.0
24/01:30pm 22.0 16.2 9.5 45 6.7 WNW 30 44 16 24 1014.8 1014.6 0.0
24/01:00pm 20.4 15.2 10.2 52 5.5 WNW 28 41 15 22 1015.0 1014.8 0.0
24/12:30pm 18.6 15.3 11.7 64 3.8 WNW 20 28 11 15 1015.5 1015.3 0.0
24/12:00pm 19.4 14.9 9.9 54 5.1 WNW 24 33 13 18 1015.3 1015.1 0.0
24/11:30am 19.9 16.6 9.5 51 5.5 WNW 17 26 9 14 1015.0 1014.8 0.0
24/11:00am 18.9 15.0 8.8 52 5.3 W 19 24 10 13 1015.1 1014.9 0.0
24/10:30am 18.9 14.8 7.7 48 5.7 W 19 30 10 16 1014.8 1014.6 0.0
24/10:00am 18.9 15.1 7.4 47 5.8 W 17 24 9 13 1014.4 1014.2 0.0
24/09:30am 18.8 15.1 7.9 49 5.6 W 17 26 9 14 1014.2 1014.0 0.0
24/09:00am 17.6 15.4 9.2 58 4.4 W 11 19 6 10 1014.0 1013.8 0.0

Latest Capital City Observations: Canberra | Sydney | Melbourne | Brisbane | Adelaide | Perth | Hobart | Darwin

Other formats

Comma delimited format used in spreadsheet applications
http://www.bom.gov.au/fwo/IDS60901/IDS60901.94814.axf

JavaScript Object Notation format (JSON) in row-major order
http://www.bom.gov.au/fwo/IDS60901/IDS60901.94814.json

Data quality

Most of these data are generated automatically and are frequently updated. Quality checks on data are not normally performed. It is possible for incorrect values to appear. Refer to information at About Latest Weather Observations and please check the disclaimer before using these data.